Weather at Hato International Airport

Public forecast

Using degrees Celsius for public forecast. Weather courtesy of forecast.io.

Current aviation weather report (METAR) for Hato International Airport

2024/04/25 02:00 (retrieved 28 minutes ago)

TNCC 250200Z 08012KT 9999 FEW018 28/26 Q1013 NOSIG

Closest aviation forecast (TAF) to Hato International Airport

Forecast is more than 12 hours old.

Closest forecast is Josefa Camejo International Airport, 74.2 nm (137.3 km) WSW.

2024/04/24 06:09 (retrieved 20 hours ago)

TAF TAF SVJC 240400Z 2406/2506 15010KT 9999 SCT013 TX33/2418Z TN24/2509Z TEMPO 2405/2410 09015KT 9000 -DZ BKN090